sensor_id;sensor_type;location;lat;lon;timestamp;pressure;altitude;pressure_sealevel;temperature;humidity
14253;BME280;7210;51.502;10.722;2024-02-28T00:01:37;99793.75;;;4.19;100.00
14253;BME280;7210;51.502;10.722;2024-02-28T00:04:04;99800.88;;;4.25;100.00
14253;BME280;7210;51.502;10.722;2024-02-28T00:06:31;99806.91;;;4.25;100.00
14253;BME280;7210;51.502;10.722;2024-02-28T00:08:59;99799.63;;;4.21;100.00
14253;BME280;7210;51.502;10.722;2024-02-28T00:11:26;99778.59;;;4.14;100.00
14253;BME280;7210;51.502;10.722;2024-02-28T00:13:54;99795.03;;;4.23;100.00
14253;BME280;7210;51.502;10.722;2024-02-28T00:16:21;99794.84;;;4.24;100.00
14253;BME280;7210;51.502;10.722;2024-02-28T00:18:48;99793.84;;;4.25;100.00
14253;BME280;7210;51.502;10.722;2024-02-28T00:21:15;99797.66;;;4.23;100.00
14253;BME280;7210;51.502;10.722;2024-02-28T00:23:42;99776.53;;;4.10;100.00
14253;BME280;7210;51.502;10.722;2024-02-28T00:26:11;99796.00;;;4.22;100.00
14253;BME280;7210;51.502;10.722;2024-02-28T00:28:38;99796.00;;;4.22;100.00
14253;BME280;7210;51.502;10.722;2024-02-28T00:31:07;99795.38;;;4.20;100.00
14253;BME280;7210;51.502;10.722;2024-02-28T00:33:34;99794.75;;;4.18;100.00
14253;BME280;7210;51.502;10.722;2024-02-28T00:36:01;99796.47;;;4.11;100.00
14253;BME280;7210;51.502;10.722;2024-02-28T00:38:28;99795.31;;;4.13;100.00
14253;BME280;7210;51.502;10.722;2024-02-28T00:40:55;99799.69;;;4.13;100.00
14253;BME280;7210;51.502;10.722;2024-02-28T00:43:22;99796.56;;;4.03;100.00
14253;BME280;7210;51.502;10.722;2024-02-28T00:45:49;99803.13;;;3.99;100.00
14253;BME280;7210;51.502;10.722;2024-02-28T00:48:18;99808.72;;;3.96;100.00
14253;BME280;7210;51.502;10.722;2024-02-28T00:50:45;99808.63;;;3.89;100.00
14253;BME280;7210;51.502;10.722;2024-02-28T00:53:15;99824.41;;;3.96;100.00
14253;BME280;7210;51.502;10.722;2024-02-28T00:55:42;99837.31;;;3.97;100.00
14253;BME280;7210;51.502;10.722;2024-02-28T00:58:10;99840.84;;;4.04;100.00
14253;BME280;7210;51.502;10.722;2024-02-28T01:00:37;99844.47;;;4.03;100.00
14253;BME280;7210;51.502;10.722;2024-02-28T01:03:04;99838.56;;;4.01;100.00
14253;BME280;7210;51.502;10.722;2024-02-28T01:05:36;99839.47;;;3.94;100.00
14253;BME280;7210;51.502;10.722;2024-02-28T01:08:04;99844.00;;;4.00;100.00
14253;BME280;7210;51.502;10.722;2024-02-28T01:10:32;99854.09;;;4.03;100.00
14253;BME280;7210;51.502;10.722;2024-02-28T01:12:59;99851.66;;;4.01;100.00
14253;BME280;7210;51.502;10.722;2024-02-28T01:15:26;99843.53;;;3.96;100.00
14253;BME280;7210;51.502;10.722;2024-02-28T01:17:53;99846.34;;;3.95;100.00
14253;BME280;7210;51.502;10.722;2024-02-28T01:20:20;99835.41;;;3.91;100.00
14253;BME280;7210;51.502;10.722;2024-02-28T01:22:48;99851.94;;;3.92;100.00
14253;BME280;7210;51.502;10.722;2024-02-28T01:25:15;99847.41;;;3.86;100.00
14253;BME280;7210;51.502;10.722;2024-02-28T01:27:43;99844.50;;;3.81;100.00
14253;BME280;7210;51.502;10.722;2024-02-28T01:30:11;99849.03;;;3.87;100.00
14253;BME280;7210;51.502;10.722;2024-02-28T01:32:38;99851.00;;;3.85;100.00
14253;BME280;7210;51.502;10.722;2024-02-28T01:35:08;99854.25;;;3.87;100.00
14253;BME280;7210;51.502;10.722;2024-02-28T01:37:35;99845.13;;;3.83;100.00
14253;BME280;7210;51.502;10.722;2024-02-28T01:40:06;99849.56;;;3.82;100.00
14253;BME280;7210;51.502;10.722;2024-02-28T01:42:33;99860.72;;;3.91;100.00
14253;BME280;7210;51.502;10.722;2024-02-28T01:45:00;99862.38;;;3.92;100.00
14253;BME280;7210;51.502;10.722;2024-02-28T01:47:27;99850.47;;;3.89;100.00
14253;BME280;7210;51.502;10.722;2024-02-28T01:49:54;99852.25;;;3.89;100.00
14253;BME280;7210;51.502;10.722;2024-02-28T01:52:22;99852.63;;;3.86;100.00
14253;BME280;7210;51.502;10.722;2024-02-28T01:54:49;99847.56;;;3.84;100.00
14253;BME280;7210;51.502;10.722;2024-02-28T01:57:17;99848.41;;;3.85;100.00
14253;BME280;7210;51.502;10.722;2024-02-28T01:59:46;99836.38;;;3.76;100.00
14253;BME280;7210;51.502;10.722;2024-02-28T02:02:15;99849.38;;;3.84;100.00
14253;BME280;7210;51.502;10.722;2024-02-28T02:04:42;99855.56;;;3.83;100.00
14253;BME280;7210;51.502;10.722;2024-02-28T02:07:09;99856.03;;;3.86;100.00
14253;BME280;7210;51.502;10.722;2024-02-28T02:09:37;99842.88;;;3.80;100.00
14253;BME280;7210;51.502;10.722;2024-02-28T02:12:09;99868.88;;;3.96;100.00
14253;BME280;7210;51.502;10.722;2024-02-28T02:14:40;99848.84;;;3.88;100.00
14253;BME280;7210;51.502;10.722;2024-02-28T02:17:08;99821.75;;;3.67;100.00
14253;BME280;7210;51.502;10.722;2024-02-28T02:19:35;99849.72;;;3.81;100.00
14253;BME280;7210;51.502;10.722;2024-02-28T02:22:05;99812.47;;;3.64;100.00
14253;BME280;7210;51.502;10.722;2024-02-28T02:24:36;99850.72;;;3.80;100.00
14253;BME280;7210;51.502;10.722;2024-02-28T02:27:03;99843.25;;;3.77;100.00
14253;BME280;7210;51.502;10.722;2024-02-28T02:29:30;99827.09;;;3.73;100.00
14253;BME280;7210;51.502;10.722;2024-02-28T02:32:09;99828.63;;;3.68;100.00
14253;BME280;7210;51.502;10.722;2024-02-28T02:34:36;99821.75;;;3.67;100.00
14253;BME280;7210;51.502;10.722;2024-02-28T02:37:03;99822.72;;;3.66;100.00
14253;BME280;7210;51.502;10.722;2024-02-28T02:39:36;99827.16;;;3.65;100.00
14253;BME280;7210;51.502;10.722;2024-02-28T02:42:03;99818.03;;;3.61;100.00
14253;BME280;7210;51.502;10.722;2024-02-28T02:44:33;99824.72;;;3.64;100.00
14253;BME280;7210;51.502;10.722;2024-02-28T02:47:03;99839.97;;;3.75;100.00
14253;BME280;7210;51.502;10.722;2024-02-28T02:49:30;99843.31;;;3.69;100.00
14253;BME280;7210;51.502;10.722;2024-02-28T02:51:57;99834.53;;;3.62;100.00
14253;BME280;7210;51.502;10.722;2024-02-28T02:54:24;99838.47;;;3.58;100.00
14253;BME280;7210;51.502;10.722;2024-02-28T02:56:53;99829.91;;;3.50;100.00
14253;BME280;7210;51.502;10.722;2024-02-28T02:59:20;99856.72;;;3.66;100.00
14253;BME280;7210;51.502;10.722;2024-02-28T03:01:49;99841.72;;;3.60;100.00
14253;BME280;7210;51.502;10.722;2024-02-28T03:04:16;99844.34;;;3.60;100.00
14253;BME280;7210;51.502;10.722;2024-02-28T03:06:44;99847.94;;;3.59;100.00
14253;BME280;7210;51.502;10.722;2024-02-28T03:09:11;99843.09;;;3.56;100.00
14253;BME280;7210;51.502;10.722;2024-02-28T03:11:38;99849.31;;;3.55;100.00
14253;BME280;7210;51.502;10.722;2024-02-28T03:14:06;99873.22;;;3.66;100.00
14253;BME280;7210;51.502;10.722;2024-02-28T03:16:33;99865.53;;;3.65;100.00
14253;BME280;7210;51.502;10.722;2024-02-28T03:19:03;99881.34;;;3.71;100.00
14253;BME280;7210;51.502;10.722;2024-02-28T03:21:30;99871.25;;;3.68;100.00
14253;BME280;7210;51.502;10.722;2024-02-28T03:23:58;99865.91;;;3.62;100.00
14253;BME280;7210;51.502;10.722;2024-02-28T03:26:25;99873.91;;;3.60;100.00
14253;BME280;7210;51.502;10.722;2024-02-28T03:28:52;99876.69;;;3.59;100.00
14253;BME280;7210;51.502;10.722;2024-02-28T03:31:20;99873.91;;;3.60;100.00
14253;BME280;7210;51.502;10.722;2024-02-28T03:33:47;99862.06;;;3.50;100.00
14253;BME280;7210;51.502;10.722;2024-02-28T03:36:14;99860.81;;;3.46;100.00
14253;BME280;7210;51.502;10.722;2024-02-28T03:38:41;99861.13;;;3.43;100.00
14253;BME280;7210;51.502;10.722;2024-02-28T03:41:09;99874.88;;;3.45;100.00
14253;BME280;7210;51.502;10.722;2024-02-28T03:43:45;99853.72;;;3.32;100.00
14253;BME280;7210;51.502;10.722;2024-02-28T03:46:12;99864.19;;;3.32;100.00
14253;BME280;7210;51.502;10.722;2024-02-28T03:48:41;99870.84;;;3.35;100.00
14253;BME280;7210;51.502;10.722;2024-02-28T03:51:08;99872.66;;;3.34;100.00
14253;BME280;7210;51.502;10.722;2024-02-28T03:53:35;99864.34;;;3.31;100.00
14253;BME280;7210;51.502;10.722;2024-02-28T03:56:03;99869.41;;;3.32;100.00
14253;BME280;7210;51.502;10.722;2024-02-28T03:58:30;99879.16;;;3.38;100.00
14253;BME280;7210;51.502;10.722;2024-02-28T04:00:57;99866.94;;;3.31;100.00
14253;BME280;7210;51.502;10.722;2024-02-28T04:03:24;99859.81;;;3.25;100.00
14253;BME280;7210;51.502;10.722;2024-02-28T04:05:53;99872.38;;;3.21;100.00
14253;BME280;7210;51.502;10.722;2024-02-28T04:08:21;99881.22;;;3.20;100.00
14253;BME280;7210;51.502;10.722;2024-02-28T04:10:48;99876.81;;;3.21;100.00
14253;BME280;7210;51.502;10.722;2024-02-28T04:13:16;99877.63;;;3.21;100.00
14253;BME280;7210;51.502;10.722;2024-02-28T04:15:44;99865.78;;;3.11;100.00
14253;BME280;7210;51.502;10.722;2024-02-28T04:18:12;99888.59;;;3.17;100.00
14253;BME280;7210;51.502;10.722;2024-02-28T04:20:39;99887.59;;;3.18;100.00
14253;BME280;7210;51.502;10.722;2024-02-28T04:23:08;99889.75;;;3.14;100.00
14253;BME280;7210;51.502;10.722;2024-02-28T04:25:35;99880.84;;;3.01;100.00
14253;BME280;7210;51.502;10.722;2024-02-28T04:28:04;99862.31;;;2.88;100.00
14253;BME280;7210;51.502;10.722;2024-02-28T04:30:31;99855.38;;;2.72;100.00
14253;BME280;7210;51.502;10.722;2024-02-28T04:33:04;99875.53;;;2.86;100.00
14253;BME280;7210;51.502;10.722;2024-02-28T04:35:31;99891.03;;;2.88;100.00
14253;BME280;7210;51.502;10.722;2024-02-28T04:37:58;99882.06;;;2.82;100.00
14253;BME280;7210;51.502;10.722;2024-02-28T04:40:27;99902.44;;;2.87;100.00
14253;BME280;7210;51.502;10.722;2024-02-28T04:42:54;99903.63;;;2.84;100.00
14253;BME280;7210;51.502;10.722;2024-02-28T04:45:21;99906.88;;;2.86;100.00
14253;BME280;7210;51.502;10.722;2024-02-28T04:47:51;99913.56;;;2.89;100.00
14253;BME280;7210;51.502;10.722;2024-02-28T04:50:20;99924.78;;;2.89;100.00
14253;BME280;7210;51.502;10.722;2024-02-28T04:52:47;99924.78;;;2.89;100.00
14253;BME280;7210;51.502;10.722;2024-02-28T04:55:14;99923.53;;;2.85;100.00
14253;BME280;7210;51.502;10.722;2024-02-28T04:57:47;99891.31;;;2.62;100.00
14253;BME280;7210;51.502;10.722;2024-02-28T05:00:14;99917.84;;;2.74;100.00
14253;BME280;7210;51.502;10.722;2024-02-28T05:02:41;99908.09;;;2.68;100.00
14253;BME280;7210;51.502;10.722;2024-02-28T05:05:09;99894.25;;;2.59;100.00
14253;BME280;7210;51.502;10.722;2024-02-28T05:07:36;99900.16;;;2.53;100.00
14253;BME280;7210;51.502;10.722;2024-02-28T05:10:04;99909.25;;;2.57;100.00
14253;BME280;7210;51.502;10.722;2024-02-28T05:12:31;99922.94;;;2.59;100.00
14253;BME280;7210;51.502;10.722;2024-02-28T05:14:59;99909.59;;;2.54;100.00
14253;BME280;7210;51.502;10.722;2024-02-28T05:17:26;99924.13;;;2.57;100.00
14253;BME280;7210;51.502;10.722;2024-02-28T05:19:54;99921.03;;;2.53;100.00
14253;BME280;7210;51.502;10.722;2024-02-28T05:22:22;99922.00;;;2.52;100.00
14253;BME280;7210;51.502;10.722;2024-02-28T05:24:49;99932.75;;;2.49;100.00
14253;BME280;7210;51.502;10.722;2024-02-28T05:27:16;99931.97;;;2.49;100.00
14253;BME280;7210;51.502;10.722;2024-02-28T05:29:43;99939.94;;;2.47;100.00
14253;BME280;7210;51.502;10.722;2024-02-28T05:32:12;99953.47;;;2.51;100.00
14253;BME280;7210;51.502;10.722;2024-02-28T05:34:39;99950.03;;;2.50;100.00
14253;BME280;7210;51.502;10.722;2024-02-28T05:37:07;99959.69;;;2.50;100.00
14253;BME280;7210;51.502;10.722;2024-02-28T05:39:34;99979.91;;;2.56;100.00
14253;BME280;7210;51.502;10.722;2024-02-28T05:42:01;99978.22;;;2.55;100.00
14253;BME280;7210;51.502;10.722;2024-02-28T05:44:28;99972.22;;;2.54;100.00
14253;BME280;7210;51.502;10.722;2024-02-28T05:46:56;99982.31;;;2.57;100.00
14253;BME280;7210;51.502;10.722;2024-02-28T05:49:24;99973.69;;;2.57;100.00
14253;BME280;7210;51.502;10.722;2024-02-28T05:51:51;99983.28;;;2.64;100.00
14253;BME280;7210;51.502;10.722;2024-02-28T05:54:19;99970.59;;;2.53;100.00
14253;BME280;7210;51.502;10.722;2024-02-28T05:56:46;99963.44;;;2.47;100.00
14253;BME280;7210;51.502;10.722;2024-02-28T05:59:13;99959.50;;;2.43;100.00
14253;BME280;7210;51.502;10.722;2024-02-28T06:01:41;99941.63;;;2.24;100.00
14253;BME280;7210;51.502;10.722;2024-02-28T06:04:08;99961.16;;;2.28;100.00
14253;BME280;7210;51.502;10.722;2024-02-28T06:06:36;99955.50;;;2.25;100.00
14253;BME280;7210;51.502;10.722;2024-02-28T06:09:04;99961.84;;;2.22;100.00
14253;BME280;7210;51.502;10.722;2024-02-28T06:11:32;99972.28;;;2.22;100.00
14253;BME280;7210;51.502;10.722;2024-02-28T06:13:59;99971.94;;;2.25;100.00
14253;BME280;7210;51.502;10.722;2024-02-28T06:16:27;99986.59;;;2.26;100.00
14253;BME280;7210;51.502;10.722;2024-02-28T06:18:54;99985.63;;;2.27;100.00
14253;BME280;7210;51.502;10.722;2024-02-28T06:21:22;99977.16;;;2.25;100.00
14253;BME280;7210;51.502;10.722;2024-02-28T06:23:51;99986.28;;;2.21;100.00
14253;BME280;7210;51.502;10.722;2024-02-28T06:26:18;99979.09;;;2.23;100.00
14253;BME280;7210;51.502;10.722;2024-02-28T06:28:45;99984.97;;;2.25;100.00
14253;BME280;7210;51.502;10.722;2024-02-28T06:31:14;100009.41;;;2.32;100.00
14253;BME280;7210;51.502;10.722;2024-02-28T06:33:41;100014.97;;;2.37;100.00
14253;BME280;7210;51.502;10.722;2024-02-28T06:36:09;100009.56;;;2.39;100.00
14253;BME280;7210;51.502;10.722;2024-02-28T06:38:40;100006.81;;;2.40;100.00
14253;BME280;7210;51.502;10.722;2024-02-28T06:41:08;100025.72;;;2.42;100.00
14253;BME280;7210;51.502;10.722;2024-02-28T06:43:35;100001.25;;;2.35;100.00
14253;BME280;7210;51.502;10.722;2024-02-28T06:46:03;99995.75;;;2.30;100.00
14253;BME280;7210;51.502;10.722;2024-02-28T06:48:31;100022.78;;;2.45;100.00
14253;BME280;7210;51.502;10.722;2024-02-28T06:50:58;100026.19;;;2.46;100.00
14253;BME280;7210;51.502;10.722;2024-02-28T06:53:25;100033.53;;;2.50;100.00
14253;BME280;7210;51.502;10.722;2024-02-28T06:55:53;100033.53;;;2.50;100.00
14253;BME280;7210;51.502;10.722;2024-02-28T06:58:21;100029.47;;;2.56;100.00
14253;BME280;7210;51.502;10.722;2024-02-28T07:00:51;100035.13;;;2.67;100.00
14253;BME280;7210;51.502;10.722;2024-02-28T07:03:18;100038.59;;;2.60;100.00
14253;BME280;7210;51.502;10.722;2024-02-28T07:05:46;100033.38;;;2.60;100.00
14253;BME280;7210;51.502;10.722;2024-02-28T07:08:13;100019.34;;;2.53;100.00
14253;BME280;7210;51.502;10.722;2024-02-28T07:10:41;100008.41;;;2.49;100.00
14253;BME280;7210;51.502;10.722;2024-02-28T07:13:10;100014.28;;;2.51;100.00
14253;BME280;7210;51.502;10.722;2024-02-28T07:15:38;100020.81;;;2.55;100.00
14253;BME280;7210;51.502;10.722;2024-02-28T07:18:06;100035.16;;;2.59;100.00
14253;BME280;7210;51.502;10.722;2024-02-28T07:20:33;100028.97;;;2.60;100.00
14253;BME280;7210;51.502;10.722;2024-02-28T07:23:00;100030.41;;;2.55;100.00
14253;BME280;7210;51.502;10.722;2024-02-28T07:25:28;100023.75;;;2.52;100.00
14253;BME280;7210;51.502;10.722;2024-02-28T07:27:58;100026.69;;;2.49;100.00
14253;BME280;7210;51.502;10.722;2024-02-28T07:30:26;100019.19;;;2.38;100.00
14253;BME280;7210;51.502;10.722;2024-02-28T07:32:55;100030.63;;;2.45;100.00
14253;BME280;7210;51.502;10.722;2024-02-28T07:35:22;100020.19;;;2.37;100.00
14253;BME280;7210;51.502;10.722;2024-02-28T07:37:50;100050.50;;;2.46;100.00
14253;BME280;7210;51.502;10.722;2024-02-28T07:40:17;100048.88;;;2.45;100.00
14253;BME280;7210;51.502;10.722;2024-02-28T07:42:45;100040.88;;;2.39;100.00
14253;BME280;7210;51.502;10.722;2024-02-28T07:45:13;100062.41;;;2.49;100.00
14253;BME280;7210;51.502;10.722;2024-02-28T07:47:40;100053.41;;;2.43;100.00
14253;BME280;7210;51.502;10.722;2024-02-28T07:50:09;100048.53;;;2.40;100.00
14253;BME280;7210;51.502;10.722;2024-02-28T07:52:39;100054.25;;;2.44;100.00
14253;BME280;7210;51.502;10.722;2024-02-28T07:55:07;100056.38;;;2.48;100.00
14253;BME280;7210;51.502;10.722;2024-02-28T07:57:39;100056.38;;;2.48;100.00
14253;BME280;7210;51.502;10.722;2024-02-28T08:00:08;100070.38;;;2.55;100.00
14253;BME280;7210;51.502;10.722;2024-02-28T08:02:42;100080.81;;;2.63;100.00
14253;BME280;7210;51.502;10.722;2024-02-28T08:05:10;100074.28;;;2.59;100.00
14253;BME280;7210;51.502;10.722;2024-02-28T08:07:39;100068.13;;;2.52;100.00
14253;BME280;7210;51.502;10.722;2024-02-28T08:10:08;100071.22;;;2.56;100.00
14253;BME280;7210;51.502;10.722;2024-02-28T08:12:35;100090.63;;;2.69;100.00
14253;BME280;7210;51.502;10.722;2024-02-28T08:15:05;100092.88;;;2.72;100.00
14253;BME280;7210;51.502;10.722;2024-02-28T08:17:32;100119.94;;;2.87;100.00
14253;BME280;7210;51.502;10.722;2024-02-28T08:19:59;100109.84;;;2.84;100.00
14253;BME280;7210;51.502;10.722;2024-02-28T08:22:28;100120.28;;;2.92;100.00
14253;BME280;7210;51.502;10.722;2024-02-28T08:24:55;100121.75;;;2.95;100.00
14253;BME280;7210;51.502;10.722;2024-02-28T08:27:22;100110.16;;;2.89;100.00
14253;BME280;7210;51.502;10.722;2024-02-28T08:29:51;100106.25;;;2.85;100.00
14253;BME280;7210;51.502;10.722;2024-02-28T08:32:21;100115.72;;;2.94;100.00
14253;BME280;7210;51.502;10.722;2024-02-28T08:34:48;100112.75;;;2.97;100.00
14253;BME280;7210;51.502;10.722;2024-02-28T08:37:21;100110.13;;;2.97;100.00
14253;BME280;7210;51.502;10.722;2024-02-28T08:39:53;100111.28;;;3.11;100.00
14253;BME280;7210;51.502;10.722;2024-02-28T08:42:22;100096.59;;;3.02;100.00
14253;BME280;7210;51.502;10.722;2024-02-28T08:44:49;100116.34;;;3.04;100.00
14253;BME280;7210;51.502;10.722;2024-02-28T08:47:16;100110.47;;;2.94;100.00
14253;BME280;7210;51.502;10.722;2024-02-28T08:49:45;100110.81;;;2.91;100.00
14253;BME280;7210;51.502;10.722;2024-02-28T08:52:12;100134.31;;;3.07;100.00
14253;BME280;7210;51.502;10.722;2024-02-28T08:54:45;100102.50;;;2.96;100.00
14253;BME280;7210;51.502;10.722;2024-02-28T08:57:14;100113.44;;;2.99;100.00
14253;BME280;7210;51.502;10.722;2024-02-28T08:59:42;100116.81;;;3.08;100.00
14253;BME280;7210;51.502;10.722;2024-02-28T09:02:15;100096.28;;;2.97;99.97
14253;BME280;7210;51.502;10.722;2024-02-28T09:04:42;100090.59;;;2.85;99.95
14253;BME280;7210;51.502;10.722;2024-02-28T09:07:10;100085.38;;;2.85;100.00
14253;BME280;7210;51.502;10.722;2024-02-28T09:09:42;100106.53;;;2.98;99.94
14253;BME280;7210;51.502;10.722;2024-02-28T09:12:10;100126.13;;;3.10;99.89
14253;BME280;7210;51.502;10.722;2024-02-28T09:14:38;100157.28;;;3.28;99.87
14253;BME280;7210;51.502;10.722;2024-02-28T09:17:05;100128.06;;;3.24;99.36
14253;BME280;7210;51.502;10.722;2024-02-28T09:19:32;100118.59;;;3.23;99.07
14253;BME280;7210;51.502;10.722;2024-02-28T09:22:00;100114.38;;;3.22;98.89
14253;BME280;7210;51.502;10.722;2024-02-28T09:24:27;100096.09;;;3.14;98.71
14253;BME280;7210;51.502;10.722;2024-02-28T09:26:54;100116.44;;;3.35;98.68
14253;BME280;7210;51.502;10.722;2024-02-28T09:29:21;100125.72;;;3.45;98.64
14253;BME280;7210;51.502;10.722;2024-02-28T09:31:49;100125.38;;;3.48;98.41
14253;BME280;7210;51.502;10.722;2024-02-28T09:34:16;100121.44;;;3.52;98.32
14253;BME280;7210;51.502;10.722;2024-02-28T09:36:44;100137.41;;;3.65;98.11
14253;BME280;7210;51.502;10.722;2024-02-28T09:39:12;100143.91;;;3.77;97.86
14253;BME280;7210;51.502;10.722;2024-02-28T09:41:51;100147.97;;;3.87;97.76
14253;BME280;7210;51.502;10.722;2024-02-28T09:44:21;100173.69;;;4.06;97.41
14253;BME280;7210;51.502;10.722;2024-02-28T09:46:53;100172.91;;;4.28;97.34
14253;BME280;7210;51.502;10.722;2024-02-28T09:49:20;100148.88;;;4.25;96.42
14253;BME280;7210;51.502;10.722;2024-02-28T09:51:49;100154.53;;;4.36;96.10
14253;BME280;7210;51.502;10.722;2024-02-28T09:54:21;100123.72;;;4.24;95.46
14253;BME280;7210;51.502;10.722;2024-02-28T09:56:49;100080.56;;;3.97;94.92
14253;BME280;7210;51.502;10.722;2024-02-28T09:59:18;100062.16;;;3.83;94.52
14253;BME280;7210;51.502;10.722;2024-02-28T10:01:55;100057.16;;;3.73;94.49
14253;BME280;7210;51.502;10.722;2024-02-28T10:04:25;100047.94;;;3.55;94.22
14253;BME280;7210;51.502;10.722;2024-02-28T10:06:57;100069.13;;;3.68;94.32
14253;BME280;7210;51.502;10.722;2024-02-28T10:09:24;100124.22;;;3.89;94.50
14253;BME280;7210;51.502;10.722;2024-02-28T10:11:52;100145.53;;;4.08;94.34
14253;BME280;7210;51.502;10.722;2024-02-28T10:14:19;100150.34;;;4.27;94.08
14253;BME280;7210;51.502;10.722;2024-02-28T10:16:51;100179.78;;;4.52;93.93
14253;BME280;7210;51.502;10.722;2024-02-28T10:19:20;100178.09;;;4.59;93.70
14253;BME280;7210;51.502;10.722;2024-02-28T10:21:47;100182.97;;;4.70;93.39
14253;BME280;7210;51.502;10.722;2024-02-28T10:24:14;100134.94;;;4.55;92.60
14253;BME280;7210;51.502;10.722;2024-02-28T10:26:45;100124.53;;;4.47;92.48
14253;BME280;7210;51.502;10.722;2024-02-28T10:29:20;100145.75;;;4.52;92.21
14253;BME280;7210;51.502;10.722;2024-02-28T10:31:48;100153.38;;;4.61;92.08
14253;BME280;7210;51.502;10.722;2024-02-28T10:34:17;100127.78;;;4.49;91.57
14253;BME280;7210;51.502;10.722;2024-02-28T10:36:47;100182.25;;;4.76;91.72
14253;BME280;7210;51.502;10.722;2024-02-28T10:39:15;100176.78;;;4.85;91.27
14253;BME280;7210;51.502;10.722;2024-02-28T10:41:53;100193.97;;;5.02;91.01
14253;BME280;7210;51.502;10.722;2024-02-28T10:44:22;100188.56;;;5.04;90.94
14253;BME280;7210;51.502;10.722;2024-02-28T10:46:59;100188.78;;;5.17;90.59
14253;BME280;7210;51.502;10.722;2024-02-28T10:49:27;100191.34;;;5.25;90.04
14253;BME280;7210;51.502;10.722;2024-02-28T10:51:58;100186.81;;;5.33;90.10
14253;BME280;7210;51.502;10.722;2024-02-28T10:54:29;100202.41;;;5.49;89.60
14253;BME280;7210;51.502;10.722;2024-02-28T10:56:59;100245.88;;;5.81;89.59
14253;BME280;7210;51.502;10.722;2024-02-28T10:59:29;100245.41;;;5.92;89.30
14253;BME280;7210;51.502;10.722;2024-02-28T11:01:58;100206.81;;;5.86;88.60
14253;BME280;7210;51.502;10.722;2024-02-28T11:04:26;100151.78;;;5.63;87.68
14253;BME280;7210;51.502;10.722;2024-02-28T11:06:57;100210.47;;;5.77;88.10
14253;BME280;7210;51.502;10.722;2024-02-28T11:09:25;100210.22;;;5.86;87.88
14253;BME280;7210;51.502;10.722;2024-02-28T11:11:53;100164.44;;;5.74;87.18
14253;BME280;7210;51.502;10.722;2024-02-28T11:14:21;100144.97;;;5.69;87.16
14253;BME280;7210;51.502;10.722;2024-02-28T11:17:00;100160.38;;;5.72;86.61
14253;BME280;7210;51.502;10.722;2024-02-28T11:19:29;100192.41;;;5.82;86.57
14253;BME280;7210;51.502;10.722;2024-02-28T11:21:59;100190.06;;;5.87;86.63
14253;BME280;7210;51.502;10.722;2024-02-28T11:24:30;100198.50;;;5.82;86.71
14253;BME280;7210;51.502;10.722;2024-02-28T11:26:58;100193.25;;;5.82;86.46
14253;BME280;7210;51.502;10.722;2024-02-28T11:29:27;100190.78;;;5.81;86.44
14253;BME280;7210;51.502;10.722;2024-02-28T11:31:55;100181.13;;;5.81;86.06
14253;BME280;7210;51.502;10.722;2024-02-28T11:34:22;100191.06;;;5.86;85.52
14253;BME280;7210;51.502;10.722;2024-02-28T11:36:50;100187.25;;;5.88;85.82
14253;BME280;7210;51.502;10.722;2024-02-28T11:39:20;100224.88;;;5.95;85.66
14253;BME280;7210;51.502;10.722;2024-02-28T11:41:50;100212.88;;;6.01;85.58
14253;BME280;7210;51.502;10.722;2024-02-28T11:44:18;100199.38;;;6.04;84.73
14253;BME280;7210;51.502;10.722;2024-02-28T11:46:52;100200.72;;;6.00;85.16
14253;BME280;7210;51.502;10.722;2024-02-28T11:49:19;100222.63;;;6.07;85.06
14253;BME280;7210;51.502;10.722;2024-02-28T11:51:51;100259.00;;;6.24;85.46
14253;BME280;7210;51.502;10.722;2024-02-28T11:54:21;100269.56;;;6.31;85.28
14253;BME280;7210;51.502;10.722;2024-02-28T11:56:49;100289.59;;;6.46;85.32
14253;BME280;7210;51.502;10.722;2024-02-28T11:59:16;100283.41;;;6.54;85.20
14253;BME280;7210;51.502;10.722;2024-02-28T12:01:45;100271.16;;;6.61;84.96
14253;BME280;7210;51.502;10.722;2024-02-28T12:04:14;100246.72;;;6.60;84.12
14253;BME280;7210;51.502;10.722;2024-02-28T12:06:42;100225.63;;;6.54;83.88
14253;BME280;7210;51.502;10.722;2024-02-28T12:09:12;100236.38;;;6.59;83.88
14253;BME280;7210;51.502;10.722;2024-02-28T12:11:41;100248.78;;;6.65;83.95
14253;BME280;7210;51.502;10.722;2024-02-28T12:14:10;100219.56;;;6.53;83.71
14253;BME280;7210;51.502;10.722;2024-02-28T12:16:39;100244.78;;;6.69;83.83
14253;BME280;7210;51.502;10.722;2024-02-28T12:19:08;100224.66;;;6.76;83.12
14253;BME280;7210;51.502;10.722;2024-02-28T12:21:36;100194.69;;;6.70;82.63
14253;BME280;7210;51.502;10.722;2024-02-28T12:24:04;100113.13;;;6.36;82.34
14253;BME280;7210;51.502;10.722;2024-02-28T12:26:31;100153.50;;;6.35;82.38
14253;BME280;7210;51.502;10.722;2024-02-28T12:29:00;100203.72;;;6.47;82.73
14253;BME280;7210;51.502;10.722;2024-02-28T12:31:27;100149.06;;;6.36;82.19
14253;BME280;7210;51.502;10.722;2024-02-28T12:33:54;100169.34;;;6.42;82.44
14253;BME280;7210;51.502;10.722;2024-02-28T12:36:22;100147.25;;;6.36;81.86
14253;BME280;7210;51.502;10.722;2024-02-28T12:38:49;100171.56;;;6.45;82.07
14253;BME280;7210;51.502;10.722;2024-02-28T12:41:16;100153.00;;;6.46;81.57
14253;BME280;7210;51.502;10.722;2024-02-28T12:43:44;100181.84;;;6.61;81.38
14253;BME280;7210;51.502;10.722;2024-02-28T12:46:12;100193.50;;;6.73;81.23
14253;BME280;7210;51.502;10.722;2024-02-28T12:48:40;100177.44;;;6.82;81.00
14253;BME280;7210;51.502;10.722;2024-02-28T12:51:11;100144.59;;;6.72;80.57
14253;BME280;7210;51.502;10.722;2024-02-28T12:53:40;100119.06;;;6.66;80.23
14253;BME280;7210;51.502;10.722;2024-02-28T12:56:07;100117.06;;;6.68;79.98
14253;BME280;7210;51.502;10.722;2024-02-28T12:58:34;100118.31;;;6.72;79.86
14253;BME280;7210;51.502;10.722;2024-02-28T13:01:01;100111.09;;;6.80;79.51
14253;BME280;7210;51.502;10.722;2024-02-28T13:03:30;100125.28;;;6.86;79.40